sensor_id;sensor_type;location;lat;lon;timestamp;pressure;altitude;pressure_sealevel;temperature;humidity
45991;BME280;31721;41.740;-88.000;2023-08-08T00:01:59;98528.07;;;25.01;44.89
45991;BME280;31721;41.740;-88.000;2023-08-08T00:04:27;98530.47;;;25.05;44.65
45991;BME280;31721;41.740;-88.000;2023-08-08T00:06:55;98534.32;;;25.01;44.67
45991;BME280;31721;41.740;-88.000;2023-08-08T00:09:23;98537.00;;;24.84;44.29
45991;BME280;31721;41.740;-88.000;2023-08-08T00:11:51;98539.59;;;24.86;44.17
45991;BME280;31721;41.740;-88.000;2023-08-08T00:14:19;98538.60;;;24.88;44.93
45991;BME280;31721;41.740;-88.000;2023-08-08T00:16:47;98539.22;;;24.84;44.88
45991;BME280;31721;41.740;-88.000;2023-08-08T00:19:16;98536.95;;;24.78;44.58
45991;BME280;31721;41.740;-88.000;2023-08-08T00:21:43;98538.14;;;24.83;44.64
45991;BME280;31721;41.740;-88.000;2023-08-08T00:24:11;98543.78;;;24.78;44.52
45991;BME280;31721;41.740;-88.000;2023-08-08T00:26:39;98545.31;;;24.70;44.50
45991;BME280;31721;41.740;-88.000;2023-08-08T00:29:07;98548.28;;;24.68;44.53
45991;BME280;31721;41.740;-88.000;2023-08-08T00:31:34;98552.78;;;24.68;44.67
45991;BME280;31721;41.740;-88.000;2023-08-08T00:34:02;98552.74;;;24.64;44.79
45991;BME280;31721;41.740;-88.000;2023-08-08T00:36:30;98557.52;;;24.51;44.65
45991;BME280;31721;41.740;-88.000;2023-08-08T00:38:58;98560.66;;;24.48;44.80
45991;BME280;31721;41.740;-88.000;2023-08-08T00:41:27;98561.17;;;24.40;44.69
45991;BME280;31721;41.740;-88.000;2023-08-08T00:43:55;98563.40;;;24.44;44.83
45991;BME280;31721;41.740;-88.000;2023-08-08T00:46:23;98568.65;;;24.32;44.89
45991;BME280;31721;41.740;-88.000;2023-08-08T00:48:51;98570.64;;;24.26;44.96
45991;BME280;31721;41.740;-88.000;2023-08-08T00:51:19;98573.12;;;24.23;45.01
45991;BME280;31721;41.740;-88.000;2023-08-08T00:53:47;98578.40;;;24.34;45.10
45991;BME280;31721;41.740;-88.000;2023-08-08T00:56:17;98579.29;;;24.29;45.12
45991;BME280;31721;41.740;-88.000;2023-08-08T00:58:46;98580.47;;;24.10;45.22
45991;BME280;31721;41.740;-88.000;2023-08-08T01:01:14;98583.29;;;24.08;45.29
45991;BME280;31721;41.740;-88.000;2023-08-08T01:03:41;98582.77;;;24.10;45.35
45991;BME280;31721;41.740;-88.000;2023-08-08T01:06:16;98581.80;;;23.93;45.47
45991;BME280;31721;41.740;-88.000;2023-08-08T01:08:51;98581.73;;;23.81;45.64
45991;BME280;31721;41.740;-88.000;2023-08-08T01:11:23;98582.66;;;23.80;45.50
45991;BME280;31721;41.740;-88.000;2023-08-08T01:13:54;98587.21;;;23.82;45.61
45991;BME280;31721;41.740;-88.000;2023-08-08T01:16:23;98590.52;;;23.62;45.61
45991;BME280;31721;41.740;-88.000;2023-08-08T01:18:52;98591.56;;;23.72;45.61
45991;BME280;31721;41.740;-88.000;2023-08-08T01:21:21;98592.62;;;23.60;45.64
45991;BME280;31721;41.740;-88.000;2023-08-08T01:23:53;98589.97;;;23.59;45.63
45991;BME280;31721;41.740;-88.000;2023-08-08T01:26:24;98587.56;;;23.50;45.92
45991;BME280;31721;41.740;-88.000;2023-08-08T01:28:53;98585.25;;;23.49;46.19
45991;BME280;31721;41.740;-88.000;2023-08-08T01:31:21;98585.77;;;23.44;46.34
45991;BME280;31721;41.740;-88.000;2023-08-08T01:33:49;98590.44;;;23.39;46.67
45991;BME280;31721;41.740;-88.000;2023-08-08T01:36:22;98592.96;;;23.37;46.57
45991;BME280;31721;41.740;-88.000;2023-08-08T01:38:53;98594.45;;;23.24;46.48
45991;BME280;31721;41.740;-88.000;2023-08-08T01:41:23;98594.49;;;23.29;46.68
45991;BME280;31721;41.740;-88.000;2023-08-08T01:43:51;98598.62;;;23.27;47.21
45991;BME280;31721;41.740;-88.000;2023-08-08T01:46:20;98600.28;;;23.31;47.40
45991;BME280;31721;41.740;-88.000;2023-08-08T01:48:48;98606.61;;;23.22;47.27
45991;BME280;31721;41.740;-88.000;2023-08-08T01:51:15;98608.19;;;23.21;47.29
45991;BME280;31721;41.740;-88.000;2023-08-08T01:53:43;98607.52;;;23.17;47.44
45991;BME280;31721;41.740;-88.000;2023-08-08T01:56:11;98608.04;;;23.16;47.60
45991;BME280;31721;41.740;-88.000;2023-08-08T01:58:38;98611.46;;;23.15;47.73
45991;BME280;31721;41.740;-88.000;2023-08-08T02:01:06;98611.85;;;23.13;47.82
45991;BME280;31721;41.740;-88.000;2023-08-08T02:03:34;98613.24;;;23.12;47.77
45991;BME280;31721;41.740;-88.000;2023-08-08T02:06:02;98613.26;;;23.16;48.02
45991;BME280;31721;41.740;-88.000;2023-08-08T02:08:30;98611.82;;;23.13;48.06
45991;BME280;31721;41.740;-88.000;2023-08-08T02:10:58;98615.35;;;23.25;48.16
45991;BME280;31721;41.740;-88.000;2023-08-08T02:13:27;98615.55;;;23.13;48.33
45991;BME280;31721;41.740;-88.000;2023-08-08T02:15:56;98616.74;;;23.07;48.30
45991;BME280;31721;41.740;-88.000;2023-08-08T02:18:25;98615.90;;;22.93;48.51
45991;BME280;31721;41.740;-88.000;2023-08-08T02:20:52;98615.44;;;23.04;48.95
45991;BME280;31721;41.740;-88.000;2023-08-08T02:23:20;98618.15;;;23.02;49.00
45991;BME280;31721;41.740;-88.000;2023-08-08T02:25:48;98622.48;;;22.97;49.05
45991;BME280;31721;41.740;-88.000;2023-08-08T02:28:15;98623.59;;;22.86;49.07
45991;BME280;31721;41.740;-88.000;2023-08-08T02:30:43;98628.48;;;22.83;49.27
45991;BME280;31721;41.740;-88.000;2023-08-08T02:33:11;98629.22;;;22.84;49.45
45991;BME280;31721;41.740;-88.000;2023-08-08T02:35:39;98630.19;;;22.65;49.50
45991;BME280;31721;41.740;-88.000;2023-08-08T02:38:07;98633.34;;;22.52;49.74
45991;BME280;31721;41.740;-88.000;2023-08-08T02:40:35;98636.85;;;22.63;50.05
45991;BME280;31721;41.740;-88.000;2023-08-08T02:43:03;98641.07;;;22.49;50.18
45991;BME280;31721;41.740;-88.000;2023-08-08T02:45:30;98642.77;;;22.44;50.21
45991;BME280;31721;41.740;-88.000;2023-08-08T02:47:58;98641.73;;;22.44;50.39
45991;BME280;31721;41.740;-88.000;2023-08-08T02:50:25;98640.98;;;22.33;50.42
45991;BME280;31721;41.740;-88.000;2023-08-08T02:52:54;98641.58;;;22.29;50.81
45991;BME280;31721;41.740;-88.000;2023-08-08T02:55:22;98643.82;;;22.33;50.97
45991;BME280;31721;41.740;-88.000;2023-08-08T02:57:50;98646.54;;;22.32;51.02
45991;BME280;31721;41.740;-88.000;2023-08-08T03:00:17;98645.42;;;22.26;51.01
45991;BME280;31721;41.740;-88.000;2023-08-08T03:02:45;98647.05;;;22.21;51.16
45991;BME280;31721;41.740;-88.000;2023-08-08T03:05:14;98651.94;;;22.21;51.21
45991;BME280;31721;41.740;-88.000;2023-08-08T03:07:42;98655.70;;;22.14;51.42
45991;BME280;31721;41.740;-88.000;2023-08-08T03:10:10;98655.42;;;22.02;51.44
45991;BME280;31721;41.740;-88.000;2023-08-08T03:12:38;98659.05;;;22.05;51.63
45991;BME280;31721;41.740;-88.000;2023-08-08T03:15:07;98663.59;;;22.00;51.94
45991;BME280;31721;41.740;-88.000;2023-08-08T03:17:35;98666.67;;;21.87;52.01
45991;BME280;31721;41.740;-88.000;2023-08-08T03:20:03;98669.76;;;21.91;52.04
45991;BME280;31721;41.740;-88.000;2023-08-08T03:22:32;98668.67;;;21.86;52.27
45991;BME280;31721;41.740;-88.000;2023-08-08T03:24:59;98664.74;;;21.82;52.26
45991;BME280;31721;41.740;-88.000;2023-08-08T03:27:27;98664.14;;;21.76;52.29
45991;BME280;31721;41.740;-88.000;2023-08-08T03:29:55;98665.27;;;21.70;52.29
45991;BME280;31721;41.740;-88.000;2023-08-08T03:32:23;98666.26;;;21.65;52.51
45991;BME280;31721;41.740;-88.000;2023-08-08T03:34:51;98664.59;;;21.61;52.81
45991;BME280;31721;41.740;-88.000;2023-08-08T03:37:19;98666.15;;;21.57;52.89
45991;BME280;31721;41.740;-88.000;2023-08-08T03:39:46;98666.68;;;21.52;52.98
45991;BME280;31721;41.740;-88.000;2023-08-08T03:42:14;98668.42;;;21.47;53.07
45991;BME280;31721;41.740;-88.000;2023-08-08T03:44:42;98667.83;;;21.42;53.10
45991;BME280;31721;41.740;-88.000;2023-08-08T03:47:09;98667.94;;;21.39;53.26
45991;BME280;31721;41.740;-88.000;2023-08-08T03:49:37;98670.17;;;21.37;53.38
45991;BME280;31721;41.740;-88.000;2023-08-08T03:52:05;98672.51;;;21.34;53.41
45991;BME280;31721;41.740;-88.000;2023-08-08T03:54:33;98673.49;;;21.37;53.54
45991;BME280;31721;41.740;-88.000;2023-08-08T03:57:00;98673.61;;;21.26;53.70
45991;BME280;31721;41.740;-88.000;2023-08-08T03:59:28;98673.37;;;21.30;53.84
45991;BME280;31721;41.740;-88.000;2023-08-08T04:01:55;98674.89;;;21.19;54.20
45991;BME280;31721;41.740;-88.000;2023-08-08T04:04:23;98677.19;;;21.16;54.11
45991;BME280;31721;41.740;-88.000;2023-08-08T04:06:51;98681.82;;;21.19;54.28
45991;BME280;31721;41.740;-88.000;2023-08-08T04:09:18;98680.78;;;21.09;54.32
45991;BME280;31721;41.740;-88.000;2023-08-08T04:11:46;98680.04;;;21.11;54.43
45991;BME280;31721;41.740;-88.000;2023-08-08T04:14:14;98674.95;;;20.98;54.48
45991;BME280;31721;41.740;-88.000;2023-08-08T04:16:42;98674.22;;;21.11;54.77
45991;BME280;31721;41.740;-88.000;2023-08-08T04:19:10;98676.42;;;20.99;54.68
45991;BME280;31721;41.740;-88.000;2023-08-08T04:21:38;98680.01;;;20.95;54.74
45991;BME280;31721;41.740;-88.000;2023-08-08T04:24:05;98681.85;;;20.92;54.87
45991;BME280;31721;41.740;-88.000;2023-08-08T04:26:34;98682.22;;;20.84;55.00
45991;BME280;31721;41.740;-88.000;2023-08-08T04:29:02;98683.03;;;20.96;55.04
45991;BME280;31721;41.740;-88.000;2023-08-08T04:31:30;98680.85;;;20.81;54.93
45991;BME280;31721;41.740;-88.000;2023-08-08T04:33:59;98680.98;;;20.71;55.16
45991;BME280;31721;41.740;-88.000;2023-08-08T04:36:26;98680.36;;;20.81;55.22
45991;BME280;31721;41.740;-88.000;2023-08-08T04:38:54;98680.53;;;20.81;55.23
45991;BME280;31721;41.740;-88.000;2023-08-08T04:41:22;98682.81;;;20.77;55.29
45991;BME280;31721;41.740;-88.000;2023-08-08T04:43:50;98683.40;;;20.73;55.31
45991;BME280;31721;41.740;-88.000;2023-08-08T04:46:17;98684.71;;;20.70;55.43
45991;BME280;31721;41.740;-88.000;2023-08-08T04:48:45;98686.25;;;20.74;55.59
45991;BME280;31721;41.740;-88.000;2023-08-08T04:51:13;98687.65;;;20.56;55.69
45991;BME280;31721;41.740;-88.000;2023-08-08T04:53:41;98684.72;;;20.63;55.76
45991;BME280;31721;41.740;-88.000;2023-08-08T04:56:09;98681.91;;;20.51;55.65
45991;BME280;31721;41.740;-88.000;2023-08-08T04:58:37;98678.67;;;20.56;55.80
45991;BME280;31721;41.740;-88.000;2023-08-08T05:01:04;98680.55;;;20.55;56.00
45991;BME280;31721;41.740;-88.000;2023-08-08T05:03:33;98682.55;;;20.51;56.05
45991;BME280;31721;41.740;-88.000;2023-08-08T05:06:00;98688.93;;;20.50;56.04
45991;BME280;31721;41.740;-88.000;2023-08-08T05:08:27;98693.35;;;20.47;56.30
45991;BME280;31721;41.740;-88.000;2023-08-08T05:10:56;98695.03;;;20.42;56.29
45991;BME280;31721;41.740;-88.000;2023-08-08T05:13:24;98695.91;;;20.38;56.36
45991;BME280;31721;41.740;-88.000;2023-08-08T05:15:52;98696.45;;;20.34;56.34
45991;BME280;31721;41.740;-88.000;2023-08-08T05:18:20;98695.75;;;20.30;56.57
45991;BME280;31721;41.740;-88.000;2023-08-08T05:20:47;98694.65;;;20.34;56.67
45991;BME280;31721;41.740;-88.000;2023-08-08T05:23:15;98698.46;;;20.23;56.77
45991;BME280;31721;41.740;-88.000;2023-08-08T05:25:43;98699.48;;;20.30;56.76
45991;BME280;31721;41.740;-88.000;2023-08-08T05:28:10;98698.87;;;20.28;56.62
45991;BME280;31721;41.740;-88.000;2023-08-08T05:30:38;98702.03;;;20.18;56.63
45991;BME280;31721;41.740;-88.000;2023-08-08T05:33:06;98703.94;;;20.15;56.77
45991;BME280;31721;41.740;-88.000;2023-08-08T05:35:34;98707.02;;;20.18;56.73
45991;BME280;31721;41.740;-88.000;2023-08-08T05:38:02;98702.71;;;20.07;56.68
45991;BME280;31721;41.740;-88.000;2023-08-08T05:40:30;98699.09;;;20.11;56.83
45991;BME280;31721;41.740;-88.000;2023-08-08T05:42:58;98701.05;;;20.16;56.83
45991;BME280;31721;41.740;-88.000;2023-08-08T05:45:25;98699.66;;;19.95;56.97
45991;BME280;31721;41.740;-88.000;2023-08-08T05:47:53;98699.23;;;20.01;57.02
45991;BME280;31721;41.740;-88.000;2023-08-08T05:50:20;98703.26;;;19.96;57.03
45991;BME280;31721;41.740;-88.000;2023-08-08T05:52:48;98708.62;;;19.94;57.03
45991;BME280;31721;41.740;-88.000;2023-08-08T05:55:16;98712.27;;;19.92;57.06
45991;BME280;31721;41.740;-88.000;2023-08-08T05:57:44;98713.86;;;19.95;57.09
45991;BME280;31721;41.740;-88.000;2023-08-08T06:00:13;98711.77;;;19.83;57.24
45991;BME280;31721;41.740;-88.000;2023-08-08T06:02:41;98708.10;;;19.80;57.27
45991;BME280;31721;41.740;-88.000;2023-08-08T06:05:10;98705.64;;;19.76;57.26
45991;BME280;31721;41.740;-88.000;2023-08-08T06:07:38;98704.76;;;19.81;57.26
45991;BME280;31721;41.740;-88.000;2023-08-08T06:10:07;98705.65;;;19.67;57.37
45991;BME280;31721;41.740;-88.000;2023-08-08T06:12:34;98702.03;;;19.65;57.47
45991;BME280;31721;41.740;-88.000;2023-08-08T06:15:02;98705.55;;;19.62;57.57
45991;BME280;31721;41.740;-88.000;2023-08-08T06:17:30;98710.56;;;19.60;57.62
45991;BME280;31721;41.740;-88.000;2023-08-08T06:19:58;98708.16;;;19.55;57.69
45991;BME280;31721;41.740;-88.000;2023-08-08T06:22:26;98705.80;;;19.58;57.78
45991;BME280;31721;41.740;-88.000;2023-08-08T06:24:54;98703.01;;;19.54;57.89
45991;BME280;31721;41.740;-88.000;2023-08-08T06:27:22;98698.67;;;19.42;57.85
45991;BME280;31721;41.740;-88.000;2023-08-08T06:29:50;98696.81;;;19.45;57.97
45991;BME280;31721;41.740;-88.000;2023-08-08T06:32:17;98692.74;;;19.42;58.05
45991;BME280;31721;41.740;-88.000;2023-08-08T06:34:45;98695.42;;;19.33;58.30
45991;BME280;31721;41.740;-88.000;2023-08-08T06:37:13;98695.43;;;19.39;58.27
45991;BME280;31721;41.740;-88.000;2023-08-08T06:39:41;98695.53;;;19.31;58.16
45991;BME280;31721;41.740;-88.000;2023-08-08T06:42:09;98699.34;;;19.39;58.21
45991;BME280;31721;41.740;-88.000;2023-08-08T06:44:42;98693.04;;;19.28;58.00
45991;BME280;31721;41.740;-88.000;2023-08-08T06:47:10;98694.24;;;19.27;58.17
45991;BME280;31721;41.740;-88.000;2023-08-08T06:49:39;98695.01;;;19.35;58.17
45991;BME280;31721;41.740;-88.000;2023-08-08T06:52:06;98691.48;;;19.27;58.24
45991;BME280;31721;41.740;-88.000;2023-08-08T06:54:34;98686.50;;;19.34;58.22
45991;BME280;31721;41.740;-88.000;2023-08-08T06:57:02;98683.05;;;19.32;58.35
45991;BME280;31721;41.740;-88.000;2023-08-08T06:59:30;98686.88;;;19.32;58.39
45991;BME280;31721;41.740;-88.000;2023-08-08T07:01:58;98686.42;;;19.22;58.40
45991;BME280;31721;41.740;-88.000;2023-08-08T07:04:26;98683.07;;;19.28;58.41
45991;BME280;31721;41.740;-88.000;2023-08-08T07:06:54;98676.53;;;19.25;58.51
45991;BME280;31721;41.740;-88.000;2023-08-08T07:09:21;98674.98;;;19.29;58.50
45991;BME280;31721;41.740;-88.000;2023-08-08T07:11:49;98681.33;;;19.21;58.63
45991;BME280;31721;41.740;-88.000;2023-08-08T07:14:16;98685.72;;;19.11;58.44
45991;BME280;31721;41.740;-88.000;2023-08-08T07:16:44;98684.29;;;19.16;58.48
45991;BME280;31721;41.740;-88.000;2023-08-08T07:19:12;98683.56;;;19.12;58.58
45991;BME280;31721;41.740;-88.000;2023-08-08T07:21:40;98684.75;;;19.09;58.55
45991;BME280;31721;41.740;-88.000;2023-08-08T07:24:08;98687.89;;;19.08;58.63
45991;BME280;31721;41.740;-88.000;2023-08-08T07:26:35;98684.44;;;19.04;58.60
45991;BME280;31721;41.740;-88.000;2023-08-08T07:29:03;98687.97;;;19.17;58.61
45991;BME280;31721;41.740;-88.000;2023-08-08T07:31:32;98691.99;;;19.01;58.62
45991;BME280;31721;41.740;-88.000;2023-08-08T07:34:00;98689.91;;;19.07;58.66
45991;BME280;31721;41.740;-88.000;2023-08-08T07:36:28;98688.70;;;18.97;58.57
45991;BME280;31721;41.740;-88.000;2023-08-08T07:38:56;98692.27;;;18.93;58.77
45991;BME280;31721;41.740;-88.000;2023-08-08T07:41:24;98697.33;;;18.91;58.83
45991;BME280;31721;41.740;-88.000;2023-08-08T07:43:52;98704.41;;;18.96;58.96
45991;BME280;31721;41.740;-88.000;2023-08-08T07:46:20;98710.46;;;18.84;58.82
45991;BME280;31721;41.740;-88.000;2023-08-08T07:48:48;98712.17;;;18.83;59.06
45991;BME280;31721;41.740;-88.000;2023-08-08T07:51:17;98714.13;;;18.88;59.01
45991;BME280;31721;41.740;-88.000;2023-08-08T07:53:45;98716.01;;;18.94;59.08
45991;BME280;31721;41.740;-88.000;2023-08-08T07:56:13;98713.73;;;18.92;59.12
45991;BME280;31721;41.740;-88.000;2023-08-08T07:58:40;98713.60;;;18.75;59.16
45991;BME280;31721;41.740;-88.000;2023-08-08T08:01:08;98711.06;;;18.72;59.19
45991;BME280;31721;41.740;-88.000;2023-08-08T08:03:36;98714.19;;;18.70;59.35
45991;BME280;31721;41.740;-88.000;2023-08-08T08:06:03;98713.95;;;18.74;59.46
45991;BME280;31721;41.740;-88.000;2023-08-08T08:08:31;98709.60;;;18.64;59.45
45991;BME280;31721;41.740;-88.000;2023-08-08T08:11:00;98708.50;;;18.60;59.58
45991;BME280;31721;41.740;-88.000;2023-08-08T08:13:28;98702.47;;;18.62;59.63
45991;BME280;31721;41.740;-88.000;2023-08-08T08:15:55;98704.15;;;18.54;59.77
45991;BME280;31721;41.740;-88.000;2023-08-08T08:18:22;98709.72;;;18.54;59.68
45991;BME280;31721;41.740;-88.000;2023-08-08T08:20:50;98713.65;;;18.59;59.66
45991;BME280;31721;41.740;-88.000;2023-08-08T08:23:17;98713.74;;;18.51;59.80
45991;BME280;31721;41.740;-88.000;2023-08-08T08:25:46;98712.04;;;18.50;59.91
45991;BME280;31721;41.740;-88.000;2023-08-08T08:28:15;98710.45;;;18.64;59.75
45991;BME280;31721;41.740;-88.000;2023-08-08T08:30:43;98715.17;;;18.51;59.70
45991;BME280;31721;41.740;-88.000;2023-08-08T08:33:10;98721.67;;;18.63;59.58
45991;BME280;31721;41.740;-88.000;2023-08-08T08:35:38;98719.45;;;18.56;59.70
45991;BME280;31721;41.740;-88.000;2023-08-08T08:38:06;98717.27;;;18.46;59.68
45991;BME280;31721;41.740;-88.000;2023-08-08T08:40:38;98713.76;;;18.42;59.58
45991;BME280;31721;41.740;-88.000;2023-08-08T08:43:08;98712.95;;;18.55;59.67
45991;BME280;31721;41.740;-88.000;2023-08-08T08:45:38;98714.06;;;18.45;59.64
45991;BME280;31721;41.740;-88.000;2023-08-08T08:48:09;98710.44;;;18.41;59.70
45991;BME280;31721;41.740;-88.000;2023-08-08T08:50:38;98704.93;;;18.39;59.74
45991;BME280;31721;41.740;-88.000;2023-08-08T08:53:07;98701.59;;;18.42;59.79
45991;BME280;31721;41.740;-88.000;2023-08-08T08:55:35;98705.36;;;18.43;59.84
45991;BME280;31721;41.740;-88.000;2023-08-08T08:58:03;98703.38;;;18.42;59.89
45991;BME280;31721;41.740;-88.000;2023-08-08T09:00:32;98699.99;;;18.40;59.80
45991;BME280;31721;41.740;-88.000;2023-08-08T09:03:01;98696.68;;;18.40;59.82
45991;BME280;31721;41.740;-88.000;2023-08-08T09:05:29;98693.57;;;18.25;59.62
45991;BME280;31721;41.740;-88.000;2023-08-08T09:07:57;98694.67;;;18.37;59.69
45991;BME280;31721;41.740;-88.000;2023-08-08T09:10:26;98691.76;;;18.38;59.72
45991;BME280;31721;41.740;-88.000;2023-08-08T09:12:55;98694.32;;;18.37;59.62
45991;BME280;31721;41.740;-88.000;2023-08-08T09:15:22;98697.53;;;18.32;59.55
45991;BME280;31721;41.740;-88.000;2023-08-08T09:17:50;98697.26;;;18.23;59.36
45991;BME280;31721;41.740;-88.000;2023-08-08T09:20:18;98698.73;;;18.38;59.60
45991;BME280;31721;41.740;-88.000;2023-08-08T09:22:46;98705.05;;;18.31;59.53
45991;BME280;31721;41.740;-88.000;2023-08-08T09:25:14;98706.52;;;18.37;59.52
45991;BME280;31721;41.740;-88.000;2023-08-08T09:27:42;98703.33;;;18.33;59.45
45991;BME280;31721;41.740;-88.000;2023-08-08T09:30:10;98696.02;;;18.30;59.51
45991;BME280;31721;41.740;-88.000;2023-08-08T09:32:39;98697.56;;;18.25;59.51
45991;BME280;31721;41.740;-88.000;2023-08-08T09:35:07;98697.55;;;18.16;59.38
45991;BME280;31721;41.740;-88.000;2023-08-08T09:37:35;98690.91;;;18.15;59.50
45991;BME280;31721;41.740;-88.000;2023-08-08T09:40:05;98685.46;;;18.21;59.47
45991;BME280;31721;41.740;-88.000;2023-08-08T09:42:34;98680.94;;;18.12;59.41
45991;BME280;31721;41.740;-88.000;2023-08-08T09:45:02;98674.06;;;18.14;59.38
45991;BME280;31721;41.740;-88.000;2023-08-08T09:47:30;98669.04;;;18.04;59.45
45991;BME280;31721;41.740;-88.000;2023-08-08T09:50:00;98663.52;;;18.10;59.53
45991;BME280;31721;41.740;-88.000;2023-08-08T09:52:28;98662.50;;;18.08;59.30
45991;BME280;31721;41.740;-88.000;2023-08-08T09:54:56;98669.12;;;18.00;59.34
45991;BME280;31721;41.740;-88.000;2023-08-08T09:57:25;98669.91;;;18.08;59.25
45991;BME280;31721;41.740;-88.000;2023-08-08T09:59:53;98666.48;;;18.11;59.25
45991;BME280;31721;41.740;-88.000;2023-08-08T10:02:21;98658.16;;;18.02;59.44
45991;BME280;31721;41.740;-88.000;2023-08-08T10:04:49;98659.69;;;18.09;59.45
45991;BME280;31721;41.740;-88.000;2023-08-08T10:07:17;98659.76;;;17.99;59.42
45991;BME280;31721;41.740;-88.000;2023-08-08T10:09:46;98657.97;;;17.99;59.28
45991;BME280;31721;41.740;-88.000;2023-08-08T10:12:13;98655.83;;;17.94;59.22
45991;BME280;31721;41.740;-88.000;2023-08-08T10:14:42;98655.48;;;17.91;59.34
45991;BME280;31721;41.740;-88.000;2023-08-08T10:17:14;98657.83;;;17.85;59.39
45991;BME280;31721;41.740;-88.000;2023-08-08T10:19:51;98663.99;;;17.83;59.37
45991;BME280;31721;41.740;-88.000;2023-08-08T10:22:22;98663.66;;;17.88;59.43
45991;BME280;31721;41.740;-88.000;2023-08-08T10:24:52;98657.46;;;17.75;59.36
45991;BME280;31721;41.740;-88.000;2023-08-08T10:27:31;98651.64;;;17.69;59.70
45991;BME280;31721;41.740;-88.000;2023-08-08T10:30:04;98654.12;;;17.71;59.79
45991;BME280;31721;41.740;-88.000;2023-08-08T10:32:42;98653.27;;;17.71;59.91
45991;BME280;31721;41.740;-88.000;2023-08-08T10:35:11;98651.40;;;17.86;59.75
45991;BME280;31721;41.740;-88.000;2023-08-08T10:37:40;98653.61;;;17.80;59.64
45991;BME280;31721;41.740;-88.000;2023-08-08T10:40:08;98656.33;;;17.77;59.70
45991;BME280;31721;41.740;-88.000;2023-08-08T10:42:42;98660.59;;;17.71;59.82
45991;BME280;31721;41.740;-88.000;2023-08-08T10:45:11;98664.54;;;17.76;59.93
45991;BME280;31721;41.740;-88.000;2023-08-08T10:47:40;98666.09;;;17.69;60.16
45991;BME280;31721;41.740;-88.000;2023-08-08T10:50:09;98664.81;;;17.60;60.36
45991;BME280;31721;41.740;-88.000;2023-08-08T10:52:49;98661.22;;;17.67;60.28
45991;BME280;31721;41.740;-88.000;2023-08-08T10:55:21;98661.63;;;17.68;60.40
45991;BME280;31721;41.740;-88.000;2023-08-08T10:57:54;98659.03;;;17.74;60.53
45991;BME280;31721;41.740;-88.000;2023-08-08T11:00:25;98656.01;;;17.67;60.42
45991;BME280;31721;41.740;-88.000;2023-08-08T11:02:54;98654.47;;;17.66;60.46
45991;BME280;31721;41.740;-88.000;2023-08-08T11:05:22;98657.17;;;17.64;60.38
45991;BME280;31721;41.740;-88.000;2023-08-08T11:07:50;98663.71;;;17.56;60.65
45991;BME280;31721;41.740;-88.000;2023-08-08T11:10:18;98664.68;;;17.66;60.69
45991;BME280;31721;41.740;-88.000;2023-08-08T11:12:56;98662.07;;;17.55;60.67
45991;BME280;31721;41.740;-88.000;2023-08-08T11:15:24;98662.60;;;17.69;60.69
45991;BME280;31721;41.740;-88.000;2023-08-08T11:17:52;98661.13;;;17.56;60.78
45991;BME280;31721;41.740;-88.000;2023-08-08T11:20:20;98661.91;;;17.58;60.73
45991;BME280;31721;41.740;-88.000;2023-08-08T11:22:51;98664.24;;;17.72;60.71
45991;BME280;31721;41.740;-88.000;2023-08-08T11:25:20;98666.22;;;17.66;60.89
45991;BME280;31721;41.740;-88.000;2023-08-08T11:27:49;98667.56;;;17.68;60.95
45991;BME280;31721;41.740;-88.000;2023-08-08T11:30:17;98664.76;;;17.60;61.12
45991;BME280;31721;41.740;-88.000;2023-08-08T11:32:46;98669.68;;;17.62;61.13
45991;BME280;31721;41.740;-88.000;2023-08-08T11:35:16;98677.04;;;17.74;61.17
45991;BME280;31721;41.740;-88.000;2023-08-08T11:37:45;98678.96;;;17.66;61.22
45991;BME280;31721;41.740;-88.000;2023-08-08T11:40:13;98680.74;;;17.69;61.38
45991;BME280;31721;41.740;-88.000;2023-08-08T11:42:41;98683.95;;;17.86;61.42
45991;BME280;31721;41.740;-88.000;2023-08-08T11:45:11;98685.11;;;17.83;61.46
45991;BME280;31721;41.740;-88.000;2023-08-08T11:47:39;98687.52;;;17.88;61.47
45991;BME280;31721;41.740;-88.000;2023-08-08T11:50:09;98686.86;;;17.77;61.66
45991;BME280;31721;41.740;-88.000;2023-08-08T11:52:40;98692.56;;;17.78;61.88
45991;BME280;31721;41.740;-88.000;2023-08-08T11:55:09;98693.64;;;17.83;61.81
45991;BME280;31721;41.740;-88.000;2023-08-08T11:57:37;98692.44;;;17.85;61.80
45991;BME280;31721;41.740;-88.000;2023-08-08T12:00:07;98693.60;;;17.90;61.84
45991;BME280;31721;41.740;-88.000;2023-08-08T12:02:35;98696.41;;;17.86;61.92
45991;BME280;31721;41.740;-88.000;2023-08-08T12:05:07;98698.99;;;17.86;61.94
45991;BME280;31721;41.740;-88.000;2023-08-08T12:07:35;98698.43;;;17.99;61.95
45991;BME280;31721;41.740;-88.000;2023-08-08T12:10:05;98697.24;;;18.07;62.18
45991;BME280;31721;41.740;-88.000;2023-08-08T12:12:33;98692.25;;;18.26;61.86
45991;BME280;31721;41.740;-88.000;2023-08-08T12:15:05;98689.89;;;18.26;61.97
45991;BME280;31721;41.740;-88.000;2023-08-08T12:17:33;98682.31;;;18.29;61.83
45991;BME280;31721;41.740;-88.000;2023-08-08T12:20:02;98675.60;;;18.38;61.79
45991;BME280;31721;41.740;-88.000;2023-08-08T12:22:30;98669.76;;;18.49;61.94
45991;BME280;31721;41.740;-88.000;2023-08-08T12:24:58;98663.38;;;18.68;61.84
45991;BME280;31721;41.740;-88.000;2023-08-08T12:27:27;98663.20;;;18.69;61.78
45991;BME280;31721;41.740;-88.000;2023-08-08T12:29:54;98667.52;;;18.81;61.72
45991;BME280;31721;41.740;-88.000;2023-08-08T12:32:25;98667.04;;;18.91;61.50
45991;BME280;31721;41.740;-88.000;2023-08-08T12:34:53;98659.11;;;18.96;61.38
45991;BME280;31721;41.740;-88.000;2023-08-08T12:37:22;98655.26;;;19.06;61.42
45991;BME280;31721;41.740;-88.000;2023-08-08T12:39:51;98649.72;;;19.19;61.27
45991;BME280;31721;41.740;-88.000;2023-08-08T12:42:19;98649.30;;;19.26;61.05
45991;BME280;31721;41.740;-88.000;2023-08-08T12:44:47;98656.26;;;19.41;61.23
45991;BME280;31721;41.740;-88.000;2023-08-08T12:47:15;98662.95;;;19.55;61.19